sensor_id;sensor_type;location;lat;lon;timestamp;pressure;altitude;pressure_sealevel;temperature;humidity
58769;BME280;44536;47.474;19.056;2023-03-04T00:01:34;100591.50;;;1.37;80.81
58769;BME280;44536;47.474;19.056;2023-03-04T00:04:36;100596.69;;;1.38;80.82
58769;BME280;44536;47.474;19.056;2023-03-04T00:07:39;100599.56;;;1.30;80.65
58769;BME280;44536;47.474;19.056;2023-03-04T00:10:42;100593.69;;;1.24;80.79
58769;BME280;44536;47.474;19.056;2023-03-04T00:13:44;100596.28;;;1.24;80.86
58769;BME280;44536;47.474;19.056;2023-03-04T00:16:47;100592.19;;;1.17;80.77
58769;BME280;44536;47.474;19.056;2023-03-04T00:19:50;100594.75;;;1.18;79.99
58769;BME280;44536;47.474;19.056;2023-03-04T00:22:52;100593.94;;;1.16;81.25
58769;BME280;44536;47.474;19.056;2023-03-04T00:25:55;100592.28;;;1.14;81.38
58769;BME280;44536;47.474;19.056;2023-03-04T00:28:57;100594.09;;;1.12;80.92
58769;BME280;44536;47.474;19.056;2023-03-04T00:31:59;100590.38;;;1.19;81.69
58769;BME280;44536;47.474;19.056;2023-03-04T00:35:04;100594.53;;;1.24;80.12
58769;BME280;44536;47.474;19.056;2023-03-04T00:38:06;100586.25;;;1.12;80.49
58769;BME280;44536;47.474;19.056;2023-03-04T00:41:09;100585.50;;;1.08;80.49
58769;BME280;44536;47.474;19.056;2023-03-04T00:44:11;100584.84;;;1.03;80.11
58769;BME280;44536;47.474;19.056;2023-03-04T00:47:14;100582.13;;;1.05;80.29
58769;BME280;44536;47.474;19.056;2023-03-04T00:50:16;100583.97;;;1.03;79.96
58769;BME280;44536;47.474;19.056;2023-03-04T00:53:19;100582.31;;;1.00;79.92
58769;BME280;44536;47.474;19.056;2023-03-04T00:56:22;100582.56;;;0.92;81.87
58769;BME280;44536;47.474;19.056;2023-03-04T00:59:24;100583.63;;;0.87;80.96
58769;BME280;44536;47.474;19.056;2023-03-04T01:02:27;100582.78;;;0.86;81.90
58769;BME280;44536;47.474;19.056;2023-03-04T01:05:30;100572.91;;;0.68;81.69
58769;BME280;44536;47.474;19.056;2023-03-04T01:08:35;100574.62;;;0.69;82.45
58769;BME280;44536;47.474;19.056;2023-03-04T01:11:38;100564.84;;;0.76;81.69
58769;BME280;44536;47.474;19.056;2023-03-04T01:14:40;100558.56;;;0.81;81.75
58769;BME280;44536;47.474;19.056;2023-03-04T01:17:42;100560.38;;;0.79;81.83
58769;BME280;44536;47.474;19.056;2023-03-04T01:20:45;100556.06;;;0.78;82.14
58769;BME280;44536;47.474;19.056;2023-03-04T01:23:47;100558.78;;;0.75;81.92
58769;BME280;44536;47.474;19.056;2023-03-04T01:26:50;100557.31;;;0.66;81.65
58769;BME280;44536;47.474;19.056;2023-03-04T01:29:52;100556.66;;;0.60;82.28
58769;BME280;44536;47.474;19.056;2023-03-04T01:32:56;100552.53;;;0.53;83.05
58769;BME280;44536;47.474;19.056;2023-03-04T01:35:59;100556.16;;;0.49;83.60
58769;BME280;44536;47.474;19.056;2023-03-04T01:39:01;100540.50;;;0.49;82.38
58769;BME280;44536;47.474;19.056;2023-03-04T01:42:04;100539.56;;;0.51;82.35
58769;BME280;44536;47.474;19.056;2023-03-04T01:45:14;100535.25;;;0.50;82.33
58769;BME280;44536;47.474;19.056;2023-03-04T01:48:21;100532.06;;;0.41;84.17
58769;BME280;44536;47.474;19.056;2023-03-04T01:51:25;100532.16;;;0.38;83.79
58769;BME280;44536;47.474;19.056;2023-03-04T01:54:28;100533.03;;;0.38;83.84
58769;BME280;44536;47.474;19.056;2023-03-04T01:57:34;100523.41;;;0.40;83.61
58769;BME280;44536;47.474;19.056;2023-03-04T02:00:36;100528.69;;;0.37;86.10
58769;BME280;44536;47.474;19.056;2023-03-04T02:03:40;100519.47;;;0.27;84.98
58769;BME280;44536;47.474;19.056;2023-03-04T02:06:43;100524.63;;;0.28;84.43
58769;BME280;44536;47.474;19.056;2023-03-04T02:09:46;100522.25;;;0.21;83.36
58769;BME280;44536;47.474;19.056;2023-03-04T02:12:49;100519.84;;;0.15;83.29
58769;BME280;44536;47.474;19.056;2023-03-04T02:15:51;100522.22;;;0.22;84.00
58769;BME280;44536;47.474;19.056;2023-03-04T02:18:54;100511.28;;;0.10;84.62
58769;BME280;44536;47.474;19.056;2023-03-04T02:21:57;100508.91;;;0.02;85.27
58769;BME280;44536;47.474;19.056;2023-03-04T02:25:02;100511.53;;;0.02;85.58
58769;BME280;44536;47.474;19.056;2023-03-04T02:28:06;100508.41;;;-0.09;85.74
58769;BME280;44536;47.474;19.056;2023-03-04T02:34:32;100492.97;;;-0.15;85.22
58769;BME280;44536;47.474;19.056;2023-03-04T02:37:35;100495.44;;;-0.11;85.86
58769;BME280;44536;47.474;19.056;2023-03-04T02:40:39;100494.75;;;-0.17;88.59
58769;BME280;44536;47.474;19.056;2023-03-04T02:43:45;100489.62;;;-0.20;88.71
58769;BME280;44536;47.474;19.056;2023-03-04T02:46:49;100489.31;;;-0.10;89.33
58769;BME280;44536;47.474;19.056;2023-03-04T02:49:52;100487.06;;;-0.22;91.12
58769;BME280;44536;47.474;19.056;2023-03-04T02:52:56;100481.91;;;-0.23;91.27
58769;BME280;44536;47.474;19.056;2023-03-04T02:55:58;100477.72;;;-0.29;92.03
58769;BME280;44536;47.474;19.056;2023-03-04T02:59:04;100472.78;;;-0.38;90.81
58769;BME280;44536;47.474;19.056;2023-03-04T03:02:07;100471.81;;;-0.34;90.72
58769;BME280;44536;47.474;19.056;2023-03-04T03:05:11;100477.16;;;-0.39;91.44
58769;BME280;44536;47.474;19.056;2023-03-04T03:08:15;100472.78;;;-0.38;88.73
58769;BME280;44536;47.474;19.056;2023-03-04T03:11:17;100471.00;;;-0.36;89.23
58769;BME280;44536;47.474;19.056;2023-03-04T03:14:20;100467.50;;;-0.35;89.19
58769;BME280;44536;47.474;19.056;2023-03-04T03:17:22;100465.78;;;-0.36;86.15
58769;BME280;44536;47.474;19.056;2023-03-04T03:20:24;100462.25;;;-0.34;84.84
58769;BME280;44536;47.474;19.056;2023-03-04T03:23:27;100462.91;;;-0.27;85.03
58769;BME280;44536;47.474;19.056;2023-03-04T03:26:29;100456.75;;;-0.24;87.64
58769;BME280;44536;47.474;19.056;2023-03-04T03:29:31;100456.66;;;-0.21;88.98
58769;BME280;44536;47.474;19.056;2023-03-04T03:32:34;100448.97;;;-0.26;89.37
58769;BME280;44536;47.474;19.056;2023-03-04T03:35:37;100453.38;;;-0.28;89.69
58769;BME280;44536;47.474;19.056;2023-03-04T03:38:39;100444.72;;;-0.28;89.97
58769;BME280;44536;47.474;19.056;2023-03-04T03:41:41;100452.81;;;-0.38;90.43
58769;BME280;44536;47.474;19.056;2023-03-04T03:44:44;100446.16;;;-0.48;90.94
58769;BME280;44536;47.474;19.056;2023-03-04T03:47:46;100447.09;;;-0.50;91.24
58769;BME280;44536;47.474;19.056;2023-03-04T03:50:49;100453.28;;;-0.53;89.89
58769;BME280;44536;47.474;19.056;2023-03-04T03:53:51;100447.91;;;-0.48;90.13
58769;BME280;44536;47.474;19.056;2023-03-04T03:56:54;100445.25;;;-0.47;88.97
58769;BME280;44536;47.474;19.056;2023-03-04T03:59:56;100448.00;;;-0.51;89.90
58769;BME280;44536;47.474;19.056;2023-03-04T04:02:59;100446.84;;;-0.41;89.25
58769;BME280;44536;47.474;19.056;2023-03-04T04:06:02;100454.19;;;-0.54;90.03
58769;BME280;44536;47.474;19.056;2023-03-04T04:09:04;100453.38;;;-0.56;90.22
58769;BME280;44536;47.474;19.056;2023-03-04T04:12:07;100452.66;;;-0.61;89.90
58769;BME280;44536;47.474;19.056;2023-03-04T04:15:11;100445.88;;;-0.67;89.76
58769;BME280;44536;47.474;19.056;2023-03-04T04:18:13;100448.38;;;-0.63;89.56
58769;BME280;44536;47.474;19.056;2023-03-04T04:21:16;100454.44;;;-0.63;89.24
58769;BME280;44536;47.474;19.056;2023-03-04T04:24:18;100446.84;;;-0.71;89.29
58769;BME280;44536;47.474;19.056;2023-03-04T04:27:20;100441.69;;;-0.72;88.87
58769;BME280;44536;47.474;19.056;2023-03-04T04:30:24;100446.97;;;-0.75;87.71
58769;BME280;44536;47.474;19.056;2023-03-04T04:33:26;100440.87;;;-0.74;88.00
58769;BME280;44536;47.474;19.056;2023-03-04T04:36:28;100441.59;;;-0.69;87.18
58769;BME280;44536;47.474;19.056;2023-03-04T04:39:31;100439.81;;;-0.67;85.12
58769;BME280;44536;47.474;19.056;2023-03-04T04:42:33;100438.72;;;-0.60;85.06
58769;BME280;44536;47.474;19.056;2023-03-04T04:45:36;100429.38;;;0.17;75.85
58769;BME280;44536;47.474;19.056;2023-03-04T04:48:38;100431.03;;;0.95;71.17
58769;BME280;44536;47.474;19.056;2023-03-04T04:51:40;100422.53;;;1.14;69.85
58769;BME280;44536;47.474;19.056;2023-03-04T04:54:43;100425.84;;;1.42;68.07
58769;BME280;44536;47.474;19.056;2023-03-04T04:57:45;100431.62;;;1.50;67.88
58769;BME280;44536;47.474;19.056;2023-03-04T05:00:48;100432.00;;;1.63;67.07
58769;BME280;44536;47.474;19.056;2023-03-04T05:03:50;100429.75;;;1.54;68.70
58769;BME280;44536;47.474;19.056;2023-03-04T05:06:54;100431.59;;;1.74;67.52
58769;BME280;44536;47.474;19.056;2023-03-04T05:09:56;100424.41;;;1.79;67.86
58769;BME280;44536;47.474;19.056;2023-03-04T05:12:59;100426.41;;;1.72;67.86
58769;BME280;44536;47.474;19.056;2023-03-04T05:16:01;100428.78;;;1.78;67.59
58769;BME280;44536;47.474;19.056;2023-03-04T05:19:04;100439.97;;;1.82;67.23
58769;BME280;44536;47.474;19.056;2023-03-04T05:22:06;100434.53;;;1.88;67.14
58769;BME280;44536;47.474;19.056;2023-03-04T05:25:09;100434.13;;;1.75;67.85
58769;BME280;44536;47.474;19.056;2023-03-04T05:28:12;100429.41;;;1.85;67.43
58769;BME280;44536;47.474;19.056;2023-03-04T05:31:15;100443.63;;;1.78;67.87
58769;BME280;44536;47.474;19.056;2023-03-04T05:34:18;100439.69;;;1.89;67.42
58769;BME280;44536;47.474;19.056;2023-03-04T05:37:21;100444.84;;;1.91;67.89
58769;BME280;44536;47.474;19.056;2023-03-04T05:40:23;100452.50;;;1.74;68.88
58769;BME280;44536;47.474;19.056;2023-03-04T05:43:27;100444.31;;;1.59;70.37
58769;BME280;44536;47.474;19.056;2023-03-04T05:46:29;100448.19;;;1.73;69.96
58769;BME280;44536;47.474;19.056;2023-03-04T05:49:34;100451.72;;;1.72;69.51
58769;BME280;44536;47.474;19.056;2023-03-04T05:52:36;100457.47;;;2.03;69.54
58769;BME280;44536;47.474;19.056;2023-03-04T05:55:39;100465.22;;;2.48;65.95
58769;BME280;44536;47.474;19.056;2023-03-04T05:58:42;100462.16;;;2.79;64.68
58769;BME280;44536;47.474;19.056;2023-03-04T06:01:46;100457.00;;;3.17;64.42
58769;BME280;44536;47.474;19.056;2023-03-04T06:04:48;100456.94;;;3.57;62.43
58769;BME280;44536;47.474;19.056;2023-03-04T06:07:50;100460.59;;;3.72;61.75
58769;BME280;44536;47.474;19.056;2023-03-04T06:10:55;100460.66;;;4.08;60.66
58769;BME280;44536;47.474;19.056;2023-03-04T06:13:57;100466.03;;;5.10;58.40
58769;BME280;44536;47.474;19.056;2023-03-04T06:17:00;100470.13;;;6.59;53.01
58769;BME280;44536;47.474;19.056;2023-03-04T06:20:03;100468.75;;;7.12;51.76
58769;BME280;44536;47.474;19.056;2023-03-04T06:23:07;100466.25;;;8.35;48.17
58769;BME280;44536;47.474;19.056;2023-03-04T06:26:09;100480.94;;;10.66;42.62
58769;BME280;44536;47.474;19.056;2023-03-04T06:29:16;100473.44;;;11.06;40.17
58769;BME280;44536;47.474;19.056;2023-03-04T06:32:18;100477.87;;;10.59;40.59
58769;BME280;44536;47.474;19.056;2023-03-04T06:35:21;100486.44;;;10.87;41.00
58769;BME280;44536;47.474;19.056;2023-03-04T06:38:24;100484.25;;;11.27;40.03
58769;BME280;44536;47.474;19.056;2023-03-04T06:41:27;100484.75;;;12.10;38.21
58769;BME280;44536;47.474;19.056;2023-03-04T06:44:29;100481.56;;;13.12;36.97
58769;BME280;44536;47.474;19.056;2023-03-04T06:47:32;100483.09;;;13.56;35.04
58769;BME280;44536;47.474;19.056;2023-03-04T06:50:34;100487.59;;;13.56;34.90
58769;BME280;44536;47.474;19.056;2023-03-04T06:53:37;100488.75;;;13.94;34.07
58769;BME280;44536;47.474;19.056;2023-03-04T06:56:40;100489.69;;;13.11;34.86
58769;BME280;44536;47.474;19.056;2023-03-04T06:59:42;100488.03;;;13.31;35.06
58769;BME280;44536;47.474;19.056;2023-03-04T07:02:44;100484.72;;;12.65;34.98
58769;BME280;44536;47.474;19.056;2023-03-04T07:05:47;100484.50;;;11.57;36.92
58769;BME280;44536;47.474;19.056;2023-03-04T07:08:49;100487.09;;;11.81;37.15
58769;BME280;44536;47.474;19.056;2023-03-04T07:11:52;100481.84;;;10.54;38.61
58769;BME280;44536;47.474;19.056;2023-03-04T07:14:54;100491.19;;;9.10;42.26
58769;BME280;44536;47.474;19.056;2023-03-04T07:17:56;100483.75;;;7.54;46.89
58769;BME280;44536;47.474;19.056;2023-03-04T07:20:59;100488.34;;;6.78;49.26
58769;BME280;44536;47.474;19.056;2023-03-04T07:24:01;100486.72;;;6.29;50.08
58769;BME280;44536;47.474;19.056;2023-03-04T07:27:04;100483.88;;;6.03;52.97
58769;BME280;44536;47.474;19.056;2023-03-04T07:30:07;100483.38;;;6.12;51.32
58769;BME280;44536;47.474;19.056;2023-03-04T07:33:09;100482.75;;;5.91;52.29
58769;BME280;44536;47.474;19.056;2023-03-04T07:36:12;100476.44;;;5.62;53.37
58769;BME280;44536;47.474;19.056;2023-03-04T07:39:15;100480.59;;;5.33;54.84
58769;BME280;44536;47.474;19.056;2023-03-04T07:42:18;100482.88;;;5.56;54.73
58769;BME280;44536;47.474;19.056;2023-03-04T07:45:25;100475.91;;;5.55;53.19
58769;BME280;44536;47.474;19.056;2023-03-04T07:48:28;100473.88;;;5.76;52.48
58769;BME280;44536;47.474;19.056;2023-03-04T07:51:30;100467.06;;;5.89;51.10
58769;BME280;44536;47.474;19.056;2023-03-04T07:54:32;100468.97;;;5.86;50.59
58769;BME280;44536;47.474;19.056;2023-03-04T07:57:37;100478.97;;;6.12;49.59
58769;BME280;44536;47.474;19.056;2023-03-04T08:00:40;100475.19;;;6.32;48.48
58769;BME280;44536;47.474;19.056;2023-03-04T08:03:43;100477.13;;;6.28;46.44
58769;BME280;44536;47.474;19.056;2023-03-04T08:06:46;100477.75;;;6.18;46.16
58769;BME280;44536;47.474;19.056;2023-03-04T08:09:50;100481.34;;;6.17;46.06
58769;BME280;44536;47.474;19.056;2023-03-04T08:12:52;100479.38;;;6.20;45.86
58769;BME280;44536;47.474;19.056;2023-03-04T08:15:55;100482.50;;;6.27;45.42
58769;BME280;44536;47.474;19.056;2023-03-04T08:18:59;100472.72;;;6.29;45.75
58769;BME280;44536;47.474;19.056;2023-03-04T08:22:02;100480.69;;;6.43;45.40
58769;BME280;44536;47.474;19.056;2023-03-04T08:25:04;100480.84;;;6.56;45.20
58769;BME280;44536;47.474;19.056;2023-03-04T08:28:08;100474.28;;;6.63;44.78
58769;BME280;44536;47.474;19.056;2023-03-04T08:31:15;100475.81;;;6.67;44.74
58769;BME280;44536;47.474;19.056;2023-03-04T08:34:21;100471.31;;;6.53;45.19
58769;BME280;44536;47.474;19.056;2023-03-04T08:37:23;100480.44;;;6.48;46.10
58769;BME280;44536;47.474;19.056;2023-03-04T08:40:26;100466.00;;;6.39;46.72
58769;BME280;44536;47.474;19.056;2023-03-04T08:43:29;100480.00;;;6.40;46.43
58769;BME280;44536;47.474;19.056;2023-03-04T08:46:31;100465.56;;;6.47;46.32
58769;BME280;44536;47.474;19.056;2023-03-04T08:49:34;100464.53;;;6.49;46.76
58769;BME280;44536;47.474;19.056;2023-03-04T08:52:37;100468.97;;;6.49;46.52
58769;BME280;44536;47.474;19.056;2023-03-04T08:55:40;100469.38;;;6.57;47.15
58769;BME280;44536;47.474;19.056;2023-03-04T08:58:42;100473.12;;;6.53;47.56
58769;BME280;44536;47.474;19.056;2023-03-04T09:01:44;100473.19;;;6.67;47.82
58769;BME280;44536;47.474;19.056;2023-03-04T09:04:48;100465.22;;;6.53;47.85
58769;BME280;44536;47.474;19.056;2023-03-04T09:07:50;100462.91;;;6.62;47.97
58769;BME280;44536;47.474;19.056;2023-03-04T09:10:53;100470.34;;;6.70;47.77
58769;BME280;44536;47.474;19.056;2023-03-04T09:13:56;100467.31;;;6.62;48.33
58769;BME280;44536;47.474;19.056;2023-03-04T09:16:58;100459.16;;;6.67;48.54
58769;BME280;44536;47.474;19.056;2023-03-04T09:20:00;100459.66;;;6.73;48.40
58769;BME280;44536;47.474;19.056;2023-03-04T09:23:05;100447.69;;;6.82;48.53
58769;BME280;44536;47.474;19.056;2023-03-04T09:26:20;100443.00;;;6.87;48.59
58769;BME280;44536;47.474;19.056;2023-03-04T09:29:23;100445.94;;;6.96;48.45
58769;BME280;44536;47.474;19.056;2023-03-04T09:32:25;100438.50;;;7.03;48.31
58769;BME280;44536;47.474;19.056;2023-03-04T09:35:28;100433.91;;;7.49;47.75
58769;BME280;44536;47.474;19.056;2023-03-04T09:38:33;100434.28;;;7.57;47.28
58769;BME280;44536;47.474;19.056;2023-03-04T09:41:50;100433.31;;;7.73;47.41
58769;BME280;44536;47.474;19.056;2023-03-04T09:44:57;100427.13;;;7.86;47.16
58769;BME280;44536;47.474;19.056;2023-03-04T09:48:00;100431.41;;;8.16;46.41
58769;BME280;44536;47.474;19.056;2023-03-04T09:54:48;100420.19;;;8.79;44.96
58769;BME280;44536;47.474;19.056;2023-03-04T09:58:04;100429.53;;;9.72;42.07
58769;BME280;44536;47.474;19.056;2023-03-04T10:01:33;100411.88;;;9.96;41.70
58769;BME280;44536;47.474;19.056;2023-03-04T10:04:48;100417.91;;;10.70;40.67
58769;BME280;44536;47.474;19.056;2023-03-04T10:07:58;100411.66;;;10.82;40.59
58769;BME280;44536;47.474;19.056;2023-03-04T10:11:05;100398.19;;;11.85;38.79
58769;BME280;44536;47.474;19.056;2023-03-04T10:14:31;100403.37;;;11.76;38.16
58769;BME280;44536;47.474;19.056;2023-03-04T10:17:37;100400.91;;;12.06;37.47
58769;BME280;44536;47.474;19.056;2023-03-04T10:24:13;100381.59;;;12.04;38.03
58769;BME280;44536;47.474;19.056;2023-03-04T10:27:18;100393.41;;;12.43;36.53
58769;BME280;44536;47.474;19.056;2023-03-04T10:30:48;100379.00;;;12.14;37.37
58769;BME280;44536;47.474;19.056;2023-03-04T10:33:51;100381.94;;;12.00;37.12
58769;BME280;44536;47.474;19.056;2023-03-04T10:36:59;100382.09;;;12.30;36.29
58769;BME280;44536;47.474;19.056;2023-03-04T10:40:02;100381.66;;;11.82;36.95
58769;BME280;44536;47.474;19.056;2023-03-04T10:43:13;100377.78;;;11.64;36.53
58769;BME280;44536;47.474;19.056;2023-03-04T10:46:15;100375.28;;;11.28;37.75
58769;BME280;44536;47.474;19.056;2023-03-04T10:49:19;100361.97;;;11.84;36.72
58769;BME280;44536;47.474;19.056;2023-03-04T10:52:31;100368.75;;;12.83;35.05
58769;BME280;44536;47.474;19.056;2023-03-04T10:55:43;100353.72;;;13.73;33.05
58769;BME280;44536;47.474;19.056;2023-03-04T10:58:46;100350.53;;;13.89;32.44
58769;BME280;44536;47.474;19.056;2023-03-04T11:01:53;100350.97;;;13.35;33.76
58769;BME280;44536;47.474;19.056;2023-03-04T11:08:16;100345.66;;;13.94;31.94
58769;BME280;44536;47.474;19.056;2023-03-04T11:11:38;100336.78;;;14.61;29.96
58769;BME280;44536;47.474;19.056;2023-03-04T11:14:49;100332.91;;;14.46;30.04
58769;BME280;44536;47.474;19.056;2023-03-04T11:17:59;100324.87;;;15.39;29.32
58769;BME280;44536;47.474;19.056;2023-03-04T11:21:05;100332.97;;;15.57;28.43
58769;BME280;44536;47.474;19.056;2023-03-04T11:24:13;100333.47;;;15.88;27.48
58769;BME280;44536;47.474;19.056;2023-03-04T11:27:41;100320.84;;;16.77;27.14
58769;BME280;44536;47.474;19.056;2023-03-04T11:30:57;100319.38;;;16.83;26.17
58769;BME280;44536;47.474;19.056;2023-03-04T11:41:32;100316.69;;;18.01;25.42
58769;BME280;44536;47.474;19.056;2023-03-04T11:44:36;100298.66;;;17.27;27.25
58769;BME280;44536;47.474;19.056;2023-03-04T11:51:08;100304.59;;;18.30;25.12
58769;BME280;44536;47.474;19.056;2023-03-04T12:01:08;100290.72;;;17.51;25.96
58769;BME280;44536;47.474;19.056;2023-03-04T12:04:20;100285.66;;;18.39;26.08
58769;BME280;44536;47.474;19.056;2023-03-04T12:10:43;100277.28;;;19.14;24.62
58769;BME280;44536;47.474;19.056;2023-03-04T12:23:41;100263.03;;;18.09;26.50
58769;BME280;44536;47.474;19.056;2023-03-04T12:41:24;100241.34;;;18.51;25.98
58769;BME280;44536;47.474;19.056;2023-03-04T12:44:36;100233.94;;;18.53;25.64
58769;BME280;44536;47.474;19.056;2023-03-04T12:54:12;100231.00;;;18.00;26.93
58769;BME280;44536;47.474;19.056;2023-03-04T12:57:18;100216.91;;;18.06;27.77
58769;BME280;44536;47.474;19.056;2023-03-04T13:07:01;100213.50;;;18.44;26.73
58769;BME280;44536;47.474;19.056;2023-03-04T13:10:20;100206.16;;;17.90;27.39
58769;BME280;44536;47.474;19.056;2023-03-04T13:13:37;100187.72;;;17.70;27.49
58769;BME280;44536;47.474;19.056;2023-03-04T13:16:47;100189.16;;;18.62;26.22
58769;BME280;44536;47.474;19.056;2023-03-04T13:20:12;100185.38;;;18.00;27.14
58769;BME280;44536;47.474;19.056;2023-03-04T13:23:25;100179.41;;;18.61;26.18
58769;BME280;44536;47.474;19.056;2023-03-04T13:26:33;100180.31;;;18.21;26.37
58769;BME280;44536;47.474;19.056;2023-03-04T13:29:36;100172.56;;;17.37;26.61
58769;BME280;44536;47.474;19.056;2023-03-04T13:32:39;100164.75;;;17.76;27.26
58769;BME280;44536;47.474;19.056;2023-03-04T13:39:19;100147.66;;;17.93;26.92
58769;BME280;44536;47.474;19.056;2023-03-04T13:42:41;100146.28;;;17.40;26.74
58769;BME280;44536;47.474;19.056;2023-03-04T13:45:44;100140.62;;;18.56;25.56
58769;BME280;44536;47.474;19.056;2023-03-04T13:51:52;100131.84;;;16.67;25.79
58769;BME280;44536;47.474;19.056;2023-03-04T13:55:34;100129.88;;;17.60;24.63
58769;BME280;44536;47.474;19.056;2023-03-04T13:58:38;100119.94;;;17.03;25.78
58769;BME280;44536;47.474;19.056;2023-03-04T14:07:54;100120.53;;;16.13;25.65
58769;BME280;44536;47.474;19.056;2023-03-04T14:10:56;100103.97;;;16.09;24.43
58769;BME280;44536;47.474;19.056;2023-03-04T14:14:03;100120.41;;;16.22;24.51
58769;BME280;44536;47.474;19.056;2023-03-04T14:17:16;100104.78;;;15.40;24.71
58769;BME280;44536;47.474;19.056;2023-03-04T14:20:39;100106.97;;;15.63;25.60
58769;BME280;44536;47.474;19.056;2023-03-04T14:24:16;100108.37;;;14.50;26.70
58769;BME280;44536;47.474;19.056;2023-03-04T14:27:18;100105.09;;;14.10;27.66
58769;BME280;44536;47.474;19.056;2023-03-04T14:30:26;100106.47;;;13.67;27.28
58769;BME280;44536;47.474;19.056;2023-03-04T14:33:47;100110.31;;;13.26;28.03
58769;BME280;44536;47.474;19.056;2023-03-04T14:36:51;100115.63;;;13.26;28.38
58769;BME280;44536;47.474;19.056;2023-03-04T14:39:56;100116.13;;;12.91;28.38
58769;BME280;44536;47.474;19.056;2023-03-04T14:43:10;100108.47;;;12.57;29.50
58769;BME280;44536;47.474;19.056;2023-03-04T14:46:15;100110.34;;;12.67;30.26
58769;BME280;44536;47.474;19.056;2023-03-04T14:49:20;100105.13;;;12.55;30.07
58769;BME280;44536;47.474;19.056;2023-03-04T14:52:36;100102.38;;;12.26;31.00
58769;BME280;44536;47.474;19.056;2023-03-04T14:55:39;100112.75;;;12.30;32.14
58769;BME280;44536;47.474;19.056;2023-03-04T14:58:57;100116.41;;;12.08;31.32
58769;BME280;44536;47.474;19.056;2023-03-04T15:08:37;100104.94;;;11.45;32.74
58769;BME280;44536;47.474;19.056;2023-03-04T15:11:46;100103.06;;;11.36;33.40
58769;BME280;44536;47.474;19.056;2023-03-04T15:14:52;100102.69;;;11.08;34.45
58769;BME280;44536;47.474;19.056;2023-03-04T15:18:00;100114.72;;;10.91;34.92
58769;BME280;44536;47.474;19.056;2023-03-04T15:21:23;100115.34;;;10.61;35.43
58769;BME280;44536;47.474;19.056;2023-03-04T15:24:27;100111.28;;;10.46;35.82
58769;BME280;44536;47.474;19.056;2023-03-04T15:27:29;100120.53;;;10.41;36.55
58769;BME280;44536;47.474;19.056;2023-03-04T15:30:32;100116.00;;;10.20;36.27
58769;BME280;44536;47.474;19.056;2023-03-04T15:33:35;100117.97;;;9.94;36.84
58769;BME280;44536;47.474;19.056;2023-03-04T15:36:40;100111.13;;;9.81;37.09
58769;BME280;44536;47.474;19.056;2023-03-04T15:39:42;100101.97;;;9.74;37.81
58769;BME280;44536;47.474;19.056;2023-03-04T15:42:45;100112.97;;;9.56;38.03
58769;BME280;44536;47.474;19.056;2023-03-04T15:45:48;100113.06;;;9.44;38.39
58769;BME280;44536;47.474;19.056;2023-03-04T15:48:51;100112.66;;;9.37;39.27
58769;BME280;44536;47.474;19.056;2023-03-04T15:51:54;100113.56;;;9.14;39.20
58769;BME280;44536;47.474;19.056;2023-03-04T15:54:57;100105.50;;;9.15;39.70
58769;BME280;44536;47.474;19.056;2023-03-04T15:58:00;100104.66;;;8.91;40.60
58769;BME280;44536;47.474;19.056;2023-03-04T16:01:04;100111.75;;;8.90;40.60
58769;BME280;44536;47.474;19.056;2023-03-04T16:04:10;100113.56;;;8.66;41.19
58769;BME280;44536;47.474;19.056;2023-03-04T16:07:18;100115.34;;;8.66;41.04
58769;BME280;44536;47.474;19.056;2023-03-04T16:10:24;100105.13;;;8.48;42.24
58769;BME280;44536;47.474;19.056;2023-03-04T16:13:27;100112.03;;;8.38;42.25
58769;BME280;44536;47.474;19.056;2023-03-04T16:16:29;100107.81;;;8.23;41.53
58769;BME280;44536;47.474;19.056;2023-03-04T16:19:32;100106.88;;;7.98;43.23
58769;BME280;44536;47.474;19.056;2023-03-04T16:22:36;100104.87;;;8.02;42.04
58769;BME280;44536;47.474;19.056;2023-03-04T16:25:38;100103.91;;;7.90;42.42
58769;BME280;44536;47.474;19.056;2023-03-04T16:28:43;100104.53;;;7.81;42.23
58769;BME280;44536;47.474;19.056;2023-03-04T16:31:45;100107.00;;;7.72;42.49
58769;BME280;44536;47.474;19.056;2023-03-04T16:34:48;100103.88;;;7.40;44.30
58769;BME280;44536;47.474;19.056;2023-03-04T16:37:51;100111.03;;;7.38;43.79
58769;BME280;44536;47.474;19.056;2023-03-04T16:40:55;100113.81;;;7.49;42.78
58769;BME280;44536;47.474;19.056;2023-03-04T16:43:58;100112.94;;;7.23;44.12
58769;BME280;44536;47.474;19.056;2023-03-04T16:47:02;100110.91;;;7.14;44.00
58769;BME280;44536;47.474;19.056;2023-03-04T16:50:06;100106.38;;;7.16;43.31
58769;BME280;44536;47.474;19.056;2023-03-04T16:53:20;100098.75;;;7.11;43.07
58769;BME280;44536;47.474;19.056;2023-03-04T16:56:24;100102.84;;;7.03;43.53
58769;BME280;44536;47.474;19.056;2023-03-04T16:59:27;100101.31;;;7.13;42.66
58769;BME280;44536;47.474;19.056;2023-03-04T17:02:29;100106.97;;;7.07;42.81
58769;BME280;44536;47.474;19.056;2023-03-04T17:05:32;100109.62;;;7.07;43.29
58769;BME280;44536;47.474;19.056;2023-03-04T17:08:34;100104.38;;;6.92;43.32
58769;BME280;44536;47.474;19.056;2023-03-04T17:11:37;100102.53;;;6.80;44.39
58769;BME280;44536;47.474;19.056;2023-03-04T17:14:39;100113.28;;;6.77;44.81
58769;BME280;44536;47.474;19.056;2023-03-04T17:17:43;100102.22;;;6.72;44.66
58769;BME280;44536;47.474;19.056;2023-03-04T17:20:45;100100.72;;;6.68;45.47
58769;BME280;44536;47.474;19.056;2023-03-04T17:23:48;100110.72;;;6.63;45.43
58769;BME280;44536;47.474;19.056;2023-03-04T17:26:50;100120.31;;;6.64;44.38
58769;BME280;44536;47.474;19.056;2023-03-04T17:29:53;100117.09;;;6.73;44.19
58769;BME280;44536;47.474;19.056;2023-03-04T17:32:55;100120.84;;;6.69;44.31